Rigaud, Canada
Current Conditions -  °F | °C
As of 1:00 AM on Monday 26 Jan 2015 (Local Time) from CYMX Reporting Station
Clear Clear  
Wind Chill: -4°   Ceiling: Unl
Heat Index: -4°   Visibility: 25mi
Dew Point: -11°   Wind: 3mph
Humidity: 71%   Direction: 250°WSW
Pressure: 30.12"   Gusts: NA
Location:  45.47°N, 74.3°W
Report Text: CYMX 260600Z 25003KT 25SM SKC M20/M24 A3012 RMK SLP208
Loading
Personal Weather Stations






























Interactive Weather Map New forecast layout! Learn more

10-Day Weather Forecast

Advertisements
Track Severe Weather on mobile